Las horas y fechas están en horario UTC
Sumar 1 hora en el horario de invierno y 2 en el de verano

Informes METAR cercanos

 

LEZL - Sevilla (civ/Mil, Spain
Distance from station: NNE 24km
Actualización: 19/08/2018 13:30
Despejado
Despejado
 Viento del E
Viento: E 17 km/h
Temperatura: 35°C
Rocío: 16°C
Humedad: 32%
Barómetro: 1014 hPa
Resumen: Despejado
Visibility: greater than 10 km
2018/08/19 11:30 LEZL 191130Z 08009KT 020V140 CAVOK 35/16 Q1014 NOSIG
LEMO - Moron (sp-Usafb), Spain
Distance from station: E 38km
Actualización: 19/08/2018 13:00
Despejado
Despejado
 Viento del SE
Viento: SE 13 km/h
Temperatura: 34°C
Rocío: 12°C
Humedad: 26%
Barómetro: 1015 hPa
Resumen: Despejado
Visibility: greater than 10 km
2018/08/19 11:00 LEMO 191100Z 13007KT 070V190 CAVOK 34/12 Q1015 NOSIG
LEJR - Jerez (civ/Mil), Spain
Distance from station: S 53km
Actualización: 19/08/2018 13:30
Despejado
Despejado
 Viento del E
Viento: E 20 km/h
Temperatura: 34°C
Rocío: 15°C
Humedad: 32%
Barómetro: 1015 hPa
Resumen: Despejado
Visibility: greater than 10 km
2018/08/19 11:30 LEJR 191130Z 10011KT 060V150 CAVOK 34/15 Q1015
 
LERT - Rota Naval Stati, Spain
Distance from station: SSO 71km
Actualización: 19/08/2018 13:00
Despejado
Despejado
 Viento del ESE
Viento: ESE 35 km/h
Temperatura: 33°C
Heat Index: 34°C
Rocío: 18°C
Humedad: 41%
Barómetro: 1015 hPa
Resumen: Despejado
Visibility: greater than 10 km
2018/08/19 11:00 LERT 191100Z 11019KT 070V140 CAVOK 33/18 Q1015 NOSIG
LEBA - Cordoba Airport, Spain
Distance from station: ENE 128km
Actualización: 19/08/2018 13:30
Despejado
Despejado
 Viento del ENE
Viento: ENE 7 km/h
Temperatura: 34°C
Rocío: 16°C
Humedad: 34%
Barómetro: 1016 hPa
Resumen: Despejado
Visibility: greater than 10 km
2018/08/19 11:30 LEBA 191130Z 06004KT 350V120 CAVOK 34/16 Q1016
LXGB - Gibraltar (civ/M, Gibraltar
Distance from station: SSE 137km
Actualización: 16/08/2018 22:50
NOT Current
Despejado
Despejado
 Viento del SO
Viento: SO 9 km/h
Temperatura: 25°C
Rocío: 16°C
Humedad: 57%
Barómetro: 1016 hPa
Clouds: Despejado
Visibility: 10 km
2018/08/16 20:50 LXGB 162050Z AUTO 23005KT 9999 // NCD 25/16 Q1016
 
LEMG - Malaga (civ/Mil), Spain
Distance from station: ESE 150km
Actualización: 19/08/2018 13:30
Few Clouds
Few Clouds
 Viento del SE
Viento: SE 15 km/h
Temperatura: 29°C
Heat Index: 30°C
Rocío: 19°C
Humedad: 55%
Barómetro: 1018 hPa
Clouds: Few Clouds
Visibility: 10 km
Cloud details: Few Clouds 853 m
2018/08/19 11:30 LEMG 191130Z 14008KT 100V190 9999 FEW028 29/19 Q1018 NOSIG
GMTT - Tangier/Boukhalf, Morocco
Distance from station: S 169km
Actualización: 19/08/2018 13:30
Few Clouds
Few Clouds
 Viento del E
Viento: E 43 km/h
Temperatura: 31°C
Heat Index: 32°C
Rocío: 18°C
Humedad: 46%
Barómetro: 1013 hPa
Clouds: Few Clouds
Visibility: 10 km
Cloud details: Few Clouds 488 m
2018/08/19 11:30 GMTT 191130Z 09023KT 9999 FEW016 31/18 Q1013 NOSIG
LPFR - Faro, Portugal
Distance from station: O 172km
Actualización: 19/08/2018 13:30
Despejado
Despejado
 Viento del ESE
Viento: ESE 20 km/h
Temperatura: 29°C
Heat Index: 29°C
Rocío: 18°C
Humedad: 51%
Barómetro: 1015 hPa
Resumen: Despejado
Visibility: greater than 10 km
2018/08/19 11:30 LPFR 191130Z 11011KT CAVOK 29/18 Q1015
 
LPBJ - Beja (por/Ger-Af, Portugal
Distance from station: ONO 192km
Actualización: 19/08/2018 13:00
Despejado
Despejado
 Viento del ONO
Viento: ONO 7 km/h
Temperatura: 32°C
Rocío: 13°C
Humedad: 31%
Barómetro: 1017 hPa
Resumen: Despejado
Visibility: greater than 10 km
2018/08/19 11:00 LPBJ 191100Z 29004KT 250V010 CAVOK 32/13 Q1017
LEBZ - Talavera Ab/Bada, Spain
Distance from station: NNO 194km
Actualización: 19/08/2018 13:00
Despejado
Despejado
 Viento del E
Viento: E 13 km/h
Temperatura: 32°C
Rocío: 15°C
Humedad: 36%
Barómetro: 1017 hPa
Resumen: Despejado
Visibility: greater than 10 km
2018/08/19 11:00 LEBZ 191100Z 08007KT 040V120 CAVOK 32/15 Q1017
LEMD - Madrid/Barajas, Spain
Distance from station: NE 415km
Actualización: 19/08/2018 13:30
Few Clouds
Few Clouds
 Viento del SE
Viento: SE 6 km/h
Temperatura: 28°C
Heat Index: 28°C
Rocío: 15°C
Humedad: 45%
Barómetro: 1021 hPa
Clouds: Few Clouds
Visibility: 10 km
Cloud details: Few Clouds 1524 m
2018/08/19 11:30 LEMD 191130Z 13003KT 9999 FEW050 28/15 Q1021 NOSIG